createdAt,value
2019-03-16T00:01:30.333Z,2.10
2019-03-16T00:04:14.323Z,1.90
2019-03-16T00:06:56.151Z,2.30
2019-03-16T00:09:37.987Z,2.40
2019-03-16T00:12:20.208Z,2.00
2019-03-16T00:15:01.999Z,2.20
2019-03-16T00:17:44.431Z,2.27
2019-03-16T00:20:26.681Z,2.60
2019-03-16T00:23:16.265Z,2.23
2019-03-16T00:26:18.136Z,2.40
2019-03-16T00:29:00.503Z,2.20
2019-03-16T00:31:43.228Z,2.50
2019-03-16T00:34:25.015Z,2.20
2019-03-16T00:37:07.451Z,2.70
2019-03-16T00:39:49.316Z,2.50
2019-03-16T00:42:31.431Z,2.57
2019-03-16T00:45:13.121Z,2.40
2019-03-16T00:47:54.916Z,2.63
2019-03-16T00:50:37.102Z,2.77
2019-03-16T00:53:20.583Z,3.37
2019-03-16T00:56:02.992Z,3.23
2019-03-16T00:58:44.763Z,2.80
2019-03-16T01:01:26.450Z,2.50
2019-03-16T01:04:08.468Z,2.30
2019-03-16T01:06:50.305Z,1.97
2019-03-16T01:09:32.607Z,1.90
2019-03-16T01:12:15.402Z,1.97
2019-03-16T01:14:57.935Z,2.43
2019-03-16T01:17:40.482Z,2.40
2019-03-16T01:20:22.228Z,2.43
2019-03-16T01:23:04.428Z,2.30
2019-03-16T01:25:46.858Z,2.50
2019-03-16T01:28:29.124Z,2.93
2019-03-16T01:31:11.784Z,2.47
2019-03-16T01:33:54.118Z,2.63
2019-03-16T01:36:36.860Z,2.22
2019-03-16T01:39:19.389Z,2.70
2019-03-16T01:42:01.343Z,3.13
2019-03-16T01:44:46.302Z,2.87
2019-03-16T01:47:28.531Z,2.90
2019-03-16T01:50:10.375Z,3.00
2019-03-16T01:52:53.219Z,2.90
2019-03-16T01:55:35.036Z,2.73
2019-03-16T01:58:17.109Z,2.80
2019-03-16T02:00:59.678Z,3.07
2019-03-16T02:03:42.283Z,2.97
2019-03-16T02:06:24.231Z,2.90
2019-03-16T02:09:06.671Z,2.90
2019-03-16T02:11:49.282Z,3.00
2019-03-16T02:14:31.783Z,3.10
2019-03-16T02:17:13.712Z,3.20
2019-03-16T02:19:56.235Z,2.90
2019-03-16T02:22:38.571Z,2.93
2019-03-16T02:25:20.737Z,3.10
2019-03-16T02:28:02.522Z,3.00
2019-03-16T02:30:45.059Z,3.40
2019-03-16T02:33:27.167Z,2.93
2019-03-16T02:36:09.610Z,2.50
2019-03-16T02:38:52.055Z,2.80
2019-03-16T02:41:34.178Z,2.00
2019-03-16T02:44:16.424Z,2.30
2019-03-16T02:46:58.493Z,2.53
2019-03-16T02:49:40.318Z,2.53
2019-03-16T02:52:22.410Z,2.83
2019-03-16T02:55:04.835Z,2.70
2019-03-16T02:57:47.383Z,2.90
2019-03-16T03:00:29.599Z,2.90
2019-03-16T03:03:28.036Z,3.40
2019-03-16T03:05:55.952Z,2.90
2019-03-16T03:08:38.809Z,3.10
2019-03-16T03:11:21.553Z,3.40
2019-03-16T03:17:44.043Z,4.10
2019-03-16T03:24:06.197Z,3.37
2019-03-16T03:26:48.581Z,3.60
2019-03-16T03:29:30.953Z,3.47
2019-03-16T03:32:13.072Z,3.10
2019-03-16T03:34:55.473Z,2.90
2019-03-16T03:37:37.599Z,3.00
2019-03-16T03:40:20.854Z,3.23
2019-03-16T03:43:02.856Z,2.20
2019-03-16T03:45:45.291Z,2.70
2019-03-16T03:48:27.352Z,2.23
2019-03-16T03:51:11.235Z,2.30
2019-03-16T03:53:53.811Z,2.40
2019-03-16T03:56:36.156Z,1.93
2019-03-16T03:59:18.582Z,2.10
2019-03-16T04:02:00.521Z,2.10
2019-03-16T04:04:45.547Z,2.03
2019-03-16T04:07:26.621Z,2.13
2019-03-16T04:10:08.326Z,1.70
2019-03-16T04:12:50.939Z,1.73
2019-03-16T04:15:33.543Z,1.80
2019-03-16T04:18:16.288Z,1.80
2019-03-16T04:20:58.844Z,1.30
2019-03-16T04:23:40.931Z,1.47
2019-03-16T04:26:22.790Z,1.73
2019-03-16T04:29:04.913Z,1.53
2019-03-16T04:31:46.908Z,1.70
2019-03-16T04:34:29.920Z,1.47
2019-03-16T04:37:12.202Z,1.50
2019-03-16T04:39:54.888Z,1.37
2019-03-16T04:42:36.660Z,1.40
2019-03-16T04:45:19.268Z,1.90
2019-03-16T04:48:01.847Z,1.20
2019-03-16T04:50:43.815Z,1.20
2019-03-16T04:53:25.882Z,1.50
2019-03-16T04:56:07.964Z,1.23
2019-03-16T04:58:51.669Z,1.63
2019-03-16T05:01:33.975Z,0.80
2019-03-16T05:04:16.165Z,1.07
2019-03-16T05:06:58.563Z,0.80
2019-03-16T05:09:40.687Z,0.63
2019-03-16T05:12:30.276Z,0.77
2019-03-16T05:15:32.311Z,0.80
2019-03-16T05:18:14.500Z,0.90
2019-03-16T05:20:56.659Z,0.80
2019-03-16T05:23:39.007Z,0.77
2019-03-16T05:26:21.735Z,0.90
2019-03-16T05:29:04.158Z,0.90
2019-03-16T05:31:46.160Z,0.83
2019-03-16T05:34:28.171Z,0.90
2019-03-16T05:37:10.921Z,0.87
2019-03-16T05:39:52.895Z,0.97
2019-03-16T05:42:34.989Z,0.97
2019-03-16T05:48:15.867Z,1.00
2019-03-16T05:51:05.432Z,0.80
2019-03-16T05:57:17.323Z,1.03
2019-03-16T05:59:59.215Z,1.30
2019-03-16T06:02:41.402Z,1.17
2019-03-16T06:05:23.131Z,1.90
2019-03-16T06:08:05.198Z,1.40
2019-03-16T06:10:47.123Z,1.40
2019-03-16T06:13:29.276Z,1.30
2019-03-16T06:16:11.251Z,1.13
2019-03-16T06:18:53.288Z,1.00
2019-03-16T06:21:35.715Z,1.20
2019-03-16T06:24:19.339Z,1.63
2019-03-16T06:27:01.511Z,1.07
2019-03-16T06:29:43.267Z,1.33
2019-03-16T06:32:25.400Z,1.00
2019-03-16T06:35:07.923Z,1.03
2019-03-16T06:37:50.420Z,1.03
2019-03-16T06:40:32.468Z,0.90
2019-03-16T06:43:14.191Z,1.50
2019-03-16T06:45:56.515Z,1.30
2019-03-16T06:48:39.051Z,1.20
2019-03-16T06:51:22.091Z,1.20
2019-03-16T06:54:03.911Z,1.10
2019-03-16T06:56:46.566Z,1.30
2019-03-16T06:59:28.372Z,1.10
2019-03-16T07:02:10.719Z,1.30
2019-03-16T07:04:53.066Z,1.00
2019-03-16T07:07:34.771Z,1.57
2019-03-16T07:10:16.984Z,1.20
2019-03-16T07:13:00.039Z,1.00
2019-03-16T07:21:41.583Z,1.37
2019-03-16T07:24:23.775Z,1.20
2019-03-16T07:27:06.246Z,1.30
2019-03-16T07:29:48.655Z,1.20
2019-03-16T07:32:30.800Z,1.33
2019-03-16T07:35:12.660Z,1.30
2019-03-16T07:37:55.353Z,1.60
2019-03-16T07:40:37.775Z,0.93
2019-03-16T07:43:20.047Z,1.10
2019-03-16T07:46:02.639Z,0.90
2019-03-16T07:48:44.999Z,0.90
2019-03-16T07:51:27.483Z,1.10
2019-03-16T07:54:10.031Z,0.90
2019-03-16T07:56:52.675Z,1.23
2019-03-16T07:59:37.131Z,0.93
2019-03-16T08:02:19.074Z,1.00
2019-03-16T08:05:00.883Z,0.77
2019-03-16T08:07:43.149Z,1.00
2019-03-16T08:10:25.071Z,2.30
2019-03-16T08:13:07.018Z,0.87
2019-03-16T08:15:48.862Z,1.50
2019-03-16T08:18:31.439Z,1.30
2019-03-16T08:21:13.927Z,0.50
2019-03-16T08:23:56.467Z,0.50
2019-03-16T08:29:22.071Z,0.77
2019-03-16T08:32:04.247Z,1.03
2019-03-16T08:34:46.395Z,1.10
2019-03-16T08:37:29.707Z,0.63
2019-03-16T08:40:14.318Z,0.50
2019-03-16T08:42:56.051Z,0.60
2019-03-16T08:45:38.227Z,0.70
2019-03-16T08:48:23.050Z,0.40
2019-03-16T08:51:04.420Z,0.70
2019-03-16T08:53:46.625Z,0.50
2019-03-16T08:56:28.877Z,0.67
2019-03-16T08:59:11.515Z,0.60
2019-03-16T09:01:53.477Z,0.60
2019-03-16T09:04:36.130Z,0.50
2019-03-16T09:07:18.319Z,0.60
2019-03-16T09:10:00.350Z,0.70
2019-03-16T09:12:54.325Z,0.50
2019-03-16T09:15:26.794Z,7.70
2019-03-16T09:24:58.249Z,1.10
2019-03-16T09:27:40.458Z,0.80
2019-03-16T09:30:23.108Z,0.83
2019-03-16T09:33:05.647Z,0.63
2019-03-16T09:35:47.952Z,0.70
2019-03-16T09:38:30.119Z,0.70
2019-03-16T09:41:12.095Z,0.80
2019-03-16T09:43:54.471Z,1.10
2019-03-16T09:46:36.619Z,0.70
2019-03-16T09:49:18.427Z,0.60
2019-03-16T09:52:25.791Z,0.50
2019-03-16T09:55:07.720Z,0.70
2019-03-16T09:57:49.770Z,0.73
2019-03-16T10:00:31.512Z,0.40
2019-03-16T10:03:13.957Z,0.80
2019-03-16T10:05:59.139Z,0.60
2019-03-16T10:08:41.318Z,1.90
2019-03-16T10:11:23.447Z,1.53
2019-03-16T10:14:05.911Z,1.30
2019-03-16T10:16:48.335Z,1.50
2019-03-16T10:19:30.176Z,2.20
2019-03-16T10:22:12.068Z,1.27
2019-03-16T10:25:01.675Z,1.27
2019-03-16T10:28:03.748Z,1.30
2019-03-16T10:30:45.685Z,1.20
2019-03-16T10:33:27.671Z,0.87
2019-03-16T10:36:09.759Z,0.73
2019-03-16T10:39:13.164Z,0.77
2019-03-16T10:42:01.375Z,1.30
2019-03-16T10:44:43.511Z,1.00
2019-03-16T10:47:26.044Z,0.97
2019-03-16T10:50:08.205Z,1.83
2019-03-16T10:52:50.844Z,1.00
2019-03-16T10:55:32.767Z,0.80
2019-03-16T10:58:15.139Z,0.60
2019-03-16T11:00:57.300Z,1.20
2019-03-16T11:03:39.757Z,0.60
2019-03-16T11:06:21.990Z,1.10
2019-03-16T11:12:17.244Z,0.93
2019-03-16T11:14:58.995Z,0.67
2019-03-16T11:17:41.582Z,1.00
2019-03-16T11:20:25.449Z,1.00
2019-03-16T11:22:56.020Z,0.80
2019-03-16T11:25:26.472Z,0.77
2019-03-16T11:31:17.384Z,1.10
2019-03-16T11:37:09.655Z,0.60
2019-03-16T11:39:51.967Z,0.90
2019-03-16T11:42:34.263Z,0.90
2019-03-16T11:45:17.364Z,0.87
2019-03-16T11:48:27.419Z,1.10
2019-03-16T11:51:09.315Z,1.00
2019-03-16T11:53:51.207Z,0.70
2019-03-16T11:56:33.354Z,0.80
2019-03-16T11:59:21.610Z,1.37
2019-03-16T12:02:19.994Z,0.67
2019-03-16T12:05:08.868Z,0.70
2019-03-16T12:07:50.691Z,1.03
2019-03-16T12:10:33.239Z,0.73
2019-03-16T12:13:17.947Z,0.60
2019-03-16T12:15:59.456Z,1.00
2019-03-16T12:18:41.635Z,0.90
2019-03-16T12:21:23.519Z,0.70
2019-03-16T12:24:05.876Z,0.73
2019-03-16T12:26:48.572Z,1.10
2019-03-16T12:32:20.086Z,1.00
2019-03-16T12:35:04.132Z,1.33
2019-03-16T12:37:45.992Z,0.97
2019-03-16T12:40:16.742Z,0.77
2019-03-16T12:49:02.544Z,0.93
2019-03-16T12:51:44.542Z,0.80
2019-03-16T12:54:26.622Z,0.93
2019-03-16T12:57:08.479Z,1.10
2019-03-16T12:59:50.848Z,1.00
2019-03-16T13:02:32.751Z,0.93
2019-03-16T13:05:15.146Z,1.10
2019-03-16T13:10:44.727Z,0.80
2019-03-16T13:13:27.016Z,1.03
2019-03-16T13:16:08.756Z,1.37
2019-03-16T13:18:50.930Z,1.10
2019-03-16T13:21:32.699Z,0.93
2019-03-16T13:24:14.923Z,0.80
2019-03-16T13:26:57.514Z,1.00
2019-03-16T13:29:39.943Z,0.90
2019-03-16T13:32:22.559Z,1.13
2019-03-16T13:35:05.131Z,1.37
2019-03-16T13:37:47.369Z,1.57
2019-03-16T13:40:29.416Z,1.55
2019-03-16T13:43:13.081Z,1.20
2019-03-16T13:45:55.047Z,1.40
2019-03-16T13:48:37.467Z,1.55
2019-03-16T13:51:20.162Z,1.30
2019-03-16T13:54:10.283Z,1.70
2019-03-16T13:56:52.791Z,1.20
2019-03-16T13:59:35.294Z,1.53
2019-03-16T14:02:17.240Z,1.93
2019-03-16T14:04:59.875Z,1.77
2019-03-16T14:07:42.240Z,1.90
2019-03-16T14:10:24.281Z,1.87
2019-03-16T14:13:07.079Z,1.70
2019-03-16T14:15:49.491Z,1.67
2019-03-16T14:18:31.839Z,1.93
2019-03-16T14:21:13.589Z,1.90
2019-03-16T14:23:56.195Z,2.00
2019-03-16T14:26:38.033Z,1.57
2019-03-16T14:29:20.555Z,1.97
2019-03-16T14:32:02.369Z,2.07
2019-03-16T14:34:44.123Z,1.87
2019-03-16T14:37:26.079Z,1.97
2019-03-16T14:40:08.853Z,2.07
2019-03-16T14:42:52.126Z,2.23
2019-03-16T14:45:34.398Z,2.13
2019-03-16T14:48:16.667Z,1.87
2019-03-16T14:50:59.399Z,2.20
2019-03-16T14:53:41.147Z,2.20
2019-03-16T14:56:23.387Z,2.30
2019-03-16T15:02:19.139Z,2.00
2019-03-16T15:05:01.482Z,1.73
2019-03-16T15:07:43.833Z,3.03
2019-03-16T15:14:05.807Z,2.17
2019-03-16T15:20:00.407Z,2.20
2019-03-16T15:22:42.255Z,1.90
2019-03-16T15:25:24.504Z,1.77
2019-03-16T15:28:06.656Z,2.30
2019-03-16T15:30:50.880Z,2.50
2019-03-16T15:33:33.095Z,2.23
2019-03-16T15:36:15.471Z,1.77
2019-03-16T15:38:57.819Z,1.80
2019-03-16T15:41:40.478Z,2.80
2019-03-16T15:44:23.087Z,1.93
2019-03-16T15:47:04.919Z,1.50
2019-03-16T15:49:47.538Z,1.90
2019-03-16T15:52:29.695Z,1.63
2019-03-16T15:55:11.911Z,1.90
2019-03-16T15:58:03.030Z,1.70
2019-03-16T16:00:37.501Z,1.67
2019-03-16T16:03:20.015Z,2.17
2019-03-16T16:06:02.248Z,1.80
2019-03-16T16:11:28.043Z,2.10
2019-03-16T16:17:19.923Z,1.90
2019-03-16T16:20:01.971Z,2.00
2019-03-16T16:22:44.095Z,1.80
2019-03-16T16:25:26.384Z,2.00
2019-03-16T16:28:12.043Z,2.03
2019-03-16T16:30:54.294Z,2.40
2019-03-16T16:33:37.256Z,2.23
2019-03-16T16:36:19.215Z,2.37
2019-03-16T16:39:01.311Z,2.67
2019-03-16T16:41:43.151Z,2.03
2019-03-16T16:44:52.139Z,2.20
2019-03-16T16:47:34.216Z,2.27
2019-03-16T16:50:15.900Z,2.33
2019-03-16T16:52:58.643Z,2.07
2019-03-16T16:55:40.403Z,2.77
2019-03-16T16:58:22.899Z,2.50
2019-03-16T17:01:05.963Z,2.20
2019-03-16T17:13:06.515Z,2.33
2019-03-16T17:15:49.119Z,2.27
2019-03-16T17:18:31.403Z,2.50
2019-03-16T17:21:13.907Z,2.03
2019-03-16T17:23:59.518Z,2.30
2019-03-16T17:29:23.726Z,2.87
2019-03-16T17:32:06.151Z,2.00
2019-03-16T17:34:48.851Z,2.10
2019-03-16T17:37:31.356Z,2.10
2019-03-16T17:40:13.565Z,2.43
2019-03-16T17:46:05.795Z,2.60
2019-03-16T17:48:48.417Z,3.77
2019-03-16T17:51:30.722Z,2.90
2019-03-16T17:54:12.923Z,2.60
2019-03-16T17:56:55.546Z,2.60
2019-03-16T17:59:38.607Z,7.77
2019-03-16T18:02:20.571Z,5.77
2019-03-16T18:05:03.287Z,2.93
2019-03-16T18:07:45.054Z,1.87
2019-03-16T18:10:27.147Z,3.03
2019-03-16T18:13:11.142Z,2.87
2019-03-16T18:15:52.532Z,3.50
2019-03-16T18:18:35.467Z,3.07
2019-03-16T18:21:18.007Z,3.30
2019-03-16T18:23:59.804Z,3.33
2019-03-16T18:26:41.691Z,3.43
2019-03-16T18:29:23.483Z,3.10
2019-03-16T18:32:08.220Z,2.90
2019-03-16T18:34:49.747Z,2.27
2019-03-16T18:37:32.246Z,2.20
2019-03-16T18:40:33.555Z,2.00
2019-03-16T18:43:35.125Z,2.00
2019-03-16T18:49:30.971Z,2.30
2019-03-16T18:52:12.971Z,2.30
2019-03-16T18:54:54.716Z,2.30
2019-03-16T18:57:36.674Z,1.90
2019-03-16T19:03:39.296Z,2.47
2019-03-16T19:09:49.129Z,2.23
2019-03-16T19:12:31.496Z,2.10
2019-03-16T19:15:14.027Z,2.20
2019-03-16T19:17:58.929Z,1.80
2019-03-16T19:20:40.150Z,2.33
2019-03-16T19:23:22.281Z,2.13
2019-03-16T19:26:05.124Z,1.70
2019-03-16T19:28:47.144Z,2.47
2019-03-16T19:31:17.571Z,1.90
2019-03-16T19:37:08.198Z,2.30
2019-03-16T19:39:50.487Z,2.43
2019-03-16T19:42:33.068Z,2.20
2019-03-16T19:45:15.053Z,2.10
2019-03-16T19:48:03.312Z,2.03
2019-03-16T19:50:45.763Z,2.17
2019-03-16T19:53:28.007Z,2.27
2019-03-16T19:56:09.995Z,2.30
2019-03-16T19:59:00.538Z,2.30
2019-03-16T20:01:36.235Z,1.87
2019-03-16T20:04:18.261Z,2.20
2019-03-16T20:07:00.347Z,2.03
2019-03-16T20:09:42.213Z,1.90
2019-03-16T20:12:24.473Z,2.23
2019-03-16T20:15:06.831Z,2.40
2019-03-16T20:17:49.295Z,2.20
2019-03-16T20:20:31.977Z,2.07
2019-03-16T20:23:14.560Z,2.10
2019-03-16T20:25:56.276Z,2.30
2019-03-16T20:28:38.531Z,2.30
2019-03-16T20:31:20.772Z,2.13
2019-03-16T20:34:02.791Z,2.13
2019-03-16T20:36:44.523Z,2.00
2019-03-16T20:39:26.658Z,2.43
2019-03-16T20:42:09.263Z,3.03
2019-03-16T20:44:51.763Z,2.47
2019-03-16T20:47:22.275Z,2.63
2019-03-16T20:50:31.491Z,2.60
2019-03-16T20:53:13.636Z,2.20
2019-03-16T20:55:55.612Z,2.17
2019-03-16T20:58:37.351Z,2.67
2019-03-16T21:01:19.513Z,2.57
2019-03-16T21:04:02.277Z,2.30
2019-03-16T21:06:45.466Z,2.10
2019-03-16T21:09:27.444Z,2.50
2019-03-16T21:12:09.751Z,3.03
2019-03-16T21:14:52.735Z,3.07
2019-03-16T21:17:35.486Z,2.63
2019-03-16T21:20:18.239Z,2.97
2019-03-16T21:23:00.669Z,3.00
2019-03-16T21:25:31.175Z,2.87
2019-03-16T21:31:15.745Z,2.40
2019-03-16T21:33:58.085Z,2.23
2019-03-16T21:36:41.858Z,3.60
2019-03-16T21:39:23.987Z,2.50
2019-03-16T21:42:06.327Z,2.97
2019-03-16T21:44:48.111Z,2.83
2019-03-16T21:47:30.623Z,2.43
2019-03-16T21:50:13.235Z,2.30
2019-03-16T21:52:55.982Z,2.33
2019-03-16T21:55:37.887Z,2.40
2019-03-16T21:58:20.198Z,2.40
2019-03-16T22:01:02.575Z,2.40
2019-03-16T22:03:45.195Z,1.90
2019-03-16T22:06:27.483Z,1.70
2019-03-16T22:09:09.887Z,2.00
2019-03-16T22:11:51.859Z,1.93
2019-03-16T22:14:34.243Z,1.80
2019-03-16T22:17:16.138Z,1.40
2019-03-16T22:19:58.516Z,1.33
2019-03-16T22:22:41.077Z,1.33
2019-03-16T22:25:23.447Z,1.93
2019-03-16T22:31:46.039Z,1.50
2019-03-16T22:37:08.173Z,1.40
2019-03-16T22:39:49.971Z,1.40
2019-03-16T22:42:32.537Z,1.17
2019-03-16T22:45:15.320Z,1.47
2019-03-16T22:51:09.810Z,1.03
2019-03-16T22:53:55.416Z,1.03
2019-03-16T22:56:40.135Z,0.83
2019-03-16T22:59:22.167Z,1.40
2019-03-16T23:02:04.623Z,1.03
2019-03-16T23:04:47.371Z,1.00
2019-03-16T23:07:29.979Z,0.90
2019-03-16T23:10:12.346Z,1.00
2019-03-16T23:12:54.038Z,1.20
2019-03-16T23:15:38.867Z,0.90
2019-03-16T23:18:21.489Z,0.90
2019-03-16T23:21:04.027Z,1.00
2019-03-16T23:23:46.253Z,0.80
2019-03-16T23:26:37.961Z,0.90
2019-03-16T23:29:13.218Z,0.70
2019-03-16T23:31:55.175Z,0.87
2019-03-16T23:34:38.362Z,0.80
2019-03-16T23:37:20.729Z,0.73
2019-03-16T23:40:03.461Z,0.70
2019-03-16T23:42:45.363Z,0.73
2019-03-16T23:45:27.200Z,0.60
2019-03-16T23:48:12.045Z,0.90
2019-03-16T23:50:53.983Z,0.60
2019-03-16T23:53:36.144Z,0.80
2019-03-16T23:59:02.334Z,0.50
